createdAt,value
2023-05-24T00:04:33.152Z,1004.93
2023-05-24T00:09:33.054Z,1005.05
2023-05-24T00:14:32.985Z,1005.14
2023-05-24T00:19:32.911Z,1005.00
2023-05-24T00:24:32.841Z,1005.04
2023-05-24T00:29:32.783Z,1005.04
2023-05-24T00:34:32.707Z,1005.16
2023-05-24T00:39:32.646Z,1005.11
2023-05-24T00:44:32.595Z,1005.19
2023-05-24T00:49:32.508Z,1005.17
2023-05-24T00:54:32.439Z,1005.13
2023-05-24T00:59:32.376Z,1005.26
2023-05-24T01:04:32.312Z,1005.28
2023-05-24T01:09:32.246Z,1005.30
2023-05-24T01:14:32.170Z,1005.34
2023-05-24T01:19:32.110Z,1005.36
2023-05-24T01:24:32.034Z,1005.38
2023-05-24T01:29:31.978Z,1005.38
2023-05-24T01:34:31.907Z,1005.40
2023-05-24T01:39:31.844Z,1005.45
2023-05-24T01:44:31.776Z,1005.46
2023-05-24T01:49:31.722Z,1005.42
2023-05-24T01:54:31.634Z,1005.55
2023-05-24T01:59:31.599Z,1005.52
2023-05-24T02:04:31.507Z,1005.55
2023-05-24T02:09:31.431Z,1005.53
2023-05-24T02:14:31.365Z,1005.45
2023-05-24T02:19:31.334Z,1005.55
2023-05-24T02:24:31.246Z,1005.49
2023-05-24T02:29:31.165Z,1005.46
2023-05-24T02:34:31.093Z,1005.38
2023-05-24T02:39:31.035Z,1005.43
2023-05-24T02:44:30.960Z,1005.33
2023-05-24T02:49:30.895Z,1005.30
2023-05-24T02:54:30.834Z,1005.28
2023-05-24T02:59:30.763Z,1005.35
2023-05-24T03:04:30.696Z,1005.28
2023-05-24T03:09:30.625Z,1005.43
2023-05-24T03:14:30.562Z,1005.34
2023-05-24T03:19:30.510Z,1005.43
2023-05-24T03:24:30.435Z,1005.46
2023-05-24T03:29:30.383Z,1005.50
2023-05-24T03:34:30.310Z,1005.60
2023-05-24T03:39:30.228Z,1005.58
2023-05-24T03:44:30.172Z,1005.59
2023-05-24T03:49:30.094Z,1005.67
2023-05-24T03:54:30.022Z,1005.66
2023-05-24T03:59:29.964Z,1005.80
2023-05-24T04:04:29.926Z,1005.70
2023-05-24T04:09:29.855Z,1005.84
2023-05-24T04:14:29.760Z,1005.86
2023-05-24T04:19:29.696Z,1005.98
2023-05-24T04:24:29.686Z,1005.93
2023-05-24T04:29:29.565Z,1005.97
2023-05-24T04:34:29.490Z,1006.04
2023-05-24T04:39:29.430Z,1005.91
2023-05-24T04:44:29.366Z,1006.03
2023-05-24T04:49:29.313Z,1006.04
2023-05-24T04:54:29.234Z,1006.25
2023-05-24T04:59:29.165Z,1006.31
2023-05-24T05:04:29.093Z,1006.27
2023-05-24T05:09:29.033Z,1006.23
2023-05-24T05:14:28.967Z,1006.38
2023-05-24T05:19:28.902Z,1006.48
2023-05-24T05:24:28.829Z,1006.44
2023-05-24T05:29:28.788Z,1006.37
2023-05-24T05:34:28.696Z,1006.41
2023-05-24T05:39:28.633Z,1006.45
2023-05-24T05:44:28.553Z,1006.50
2023-05-24T05:49:28.522Z,1006.45
2023-05-24T05:54:28.435Z,1006.48
2023-05-24T05:59:28.368Z,1006.56
2023-05-24T06:04:28.368Z,1006.48
2023-05-24T06:09:28.245Z,1006.45
2023-05-24T06:14:28.201Z,1006.48
2023-05-24T06:19:28.106Z,1006.58
2023-05-24T06:24:28.027Z,1006.58
2023-05-24T06:29:27.953Z,1006.67
2023-05-24T06:34:27.885Z,1006.65
2023-05-24T06:39:27.823Z,1006.65
2023-05-24T06:44:27.761Z,1006.63
2023-05-24T06:49:27.704Z,1006.79
2023-05-24T06:54:27.633Z,1006.80
2023-05-24T06:59:27.569Z,1006.69
2023-05-24T07:04:27.521Z,1006.77
2023-05-24T07:09:27.442Z,1006.75
2023-05-24T07:14:27.419Z,1006.85
2023-05-24T07:19:27.304Z,1006.82
2023-05-24T07:24:27.227Z,1006.80
2023-05-24T07:29:27.245Z,1006.86
2023-05-24T07:34:27.091Z,1006.95
2023-05-24T07:39:27.057Z,1006.96
2023-05-24T07:44:27.017Z,1007.04
2023-05-24T07:49:26.899Z,1007.03
2023-05-24T07:54:26.983Z,1007.14
2023-05-24T07:59:26.828Z,1007.17
2023-05-24T08:04:26.760Z,1007.15
2023-05-24T08:09:26.733Z,1007.19
2023-05-24T08:14:26.665Z,1007.31
2023-05-24T08:19:26.576Z,1007.19
2023-05-24T08:24:26.505Z,1007.15
2023-05-24T08:29:26.437Z,1007.23
2023-05-24T08:34:26.390Z,1007.26
2023-05-24T08:39:26.322Z,1007.23
2023-05-24T08:44:26.253Z,1007.29
2023-05-24T08:49:26.148Z,1007.37
2023-05-24T08:54:26.066Z,1007.34
2023-05-24T08:59:26.215Z,1007.37
2023-05-24T09:04:26.013Z,1007.41
2023-05-24T09:09:25.879Z,1007.24
2023-05-24T09:14:25.841Z,1007.27
2023-05-24T09:19:25.763Z,1007.26
2023-05-24T09:24:25.705Z,1007.34
2023-05-24T09:29:25.606Z,1007.27
2023-05-24T09:34:25.538Z,1007.25
2023-05-24T09:39:25.520Z,1007.35
2023-05-24T09:44:25.416Z,1007.27
2023-05-24T09:49:25.340Z,1007.21
2023-05-24T09:54:25.283Z,1007.12
2023-05-24T09:59:25.526Z,1007.23
2023-05-24T10:04:26.777Z,1007.31
2023-05-24T10:09:25.060Z,1007.40
2023-05-24T10:14:25.313Z,1007.38
2023-05-24T10:19:24.950Z,1007.39
2023-05-24T10:24:25.189Z,1007.42
2023-05-24T10:29:24.816Z,1007.22
2023-05-24T10:34:24.740Z,1007.24
2023-05-24T10:39:24.869Z,1007.28
2023-05-24T10:44:24.592Z,1007.32
2023-05-24T10:49:24.549Z,1007.36
2023-05-24T10:54:24.465Z,1007.50
2023-05-24T10:59:24.393Z,1007.50
2023-05-24T11:04:24.308Z,1007.47
2023-05-24T11:09:24.719Z,1007.61
2023-05-24T11:14:24.161Z,1007.48
2023-05-24T11:19:24.097Z,1007.54
2023-05-24T11:24:24.024Z,1007.59
2023-05-24T11:29:23.983Z,1007.40
2023-05-24T11:34:23.933Z,1007.35
2023-05-24T11:39:23.892Z,1007.35
2023-05-24T11:44:23.769Z,1007.38
2023-05-24T11:49:23.694Z,1007.33
2023-05-24T11:54:23.623Z,1007.47
2023-05-24T11:59:23.588Z,1007.39
2023-05-24T12:04:23.611Z,1007.41
2023-05-24T12:09:23.443Z,1007.37
2023-05-24T12:14:23.356Z,1007.45
2023-05-24T12:19:32.887Z,1007.48
2023-05-24T12:24:24.234Z,1007.37
2023-05-24T12:29:23.171Z,1007.36
2023-05-24T12:34:23.100Z,1007.46
2023-05-24T12:39:23.033Z,1007.47
2023-05-24T12:44:22.997Z,1007.30
2023-05-24T12:49:22.881Z,1007.45
2023-05-24T12:54:22.830Z,1007.42
2023-05-24T12:59:22.736Z,1007.37
2023-05-24T13:04:22.683Z,1007.33
2023-05-24T13:09:22.626Z,1007.28
2023-05-24T13:14:22.554Z,1007.25
2023-05-24T13:19:22.503Z,1007.15
2023-05-24T13:24:22.405Z,1007.15
2023-05-24T13:29:36.448Z,1007.23
2023-05-24T13:34:23.288Z,1007.18
2023-05-24T13:39:22.210Z,1007.22
2023-05-24T13:44:22.135Z,1007.19
2023-05-24T13:49:22.067Z,1006.98
2023-05-24T13:54:22.009Z,1007.04
2023-05-24T13:59:21.925Z,1007.08
2023-05-24T14:04:21.930Z,1007.06
2023-05-24T14:09:21.806Z,1007.07
2023-05-24T14:14:58.410Z,1006.98
2023-05-24T14:19:22.693Z,1007.03
2023-05-24T14:24:21.597Z,1007.02
2023-05-24T14:29:21.536Z,1006.96
2023-05-24T14:34:21.469Z,1006.98
2023-05-24T14:39:21.398Z,1007.05
2023-05-24T14:44:21.340Z,1006.95
2023-05-24T14:49:21.262Z,1006.94
2023-05-24T14:54:21.204Z,1007.01
2023-05-24T14:59:21.165Z,1006.97
2023-05-24T15:04:21.073Z,1007.02
2023-05-24T15:09:21.014Z,1006.95
2023-05-24T15:14:20.953Z,1006.94
2023-05-24T15:19:20.865Z,1007.06
2023-05-24T15:24:20.802Z,1006.94
2023-05-24T15:29:20.732Z,1007.05
2023-05-24T15:34:23.438Z,1007.16
2023-05-24T15:39:20.597Z,1007.05
2023-05-24T15:44:20.573Z,1007.00
2023-05-24T15:49:20.471Z,1007.11
2023-05-24T15:54:20.397Z,1007.18
2023-05-24T15:59:21.560Z,1007.13
2023-05-24T16:04:20.310Z,1007.10
2023-05-24T16:09:20.195Z,1007.10
2023-05-24T16:14:20.125Z,1007.04
2023-05-24T16:19:20.053Z,1006.96
2023-05-24T16:24:20.017Z,1006.92
2023-05-24T16:29:19.929Z,1006.93
2023-05-24T16:34:19.854Z,1006.97
2023-05-24T16:39:19.805Z,1006.98
2023-05-24T16:44:19.739Z,1007.05
2023-05-24T16:49:19.669Z,1007.14
2023-05-24T16:54:19.595Z,1007.07
2023-05-24T16:59:19.565Z,1007.08
2023-05-24T17:04:19.493Z,1007.15
2023-05-24T17:09:19.410Z,1007.08
2023-05-24T17:14:19.333Z,1007.09
2023-05-24T17:19:19.266Z,1007.15
2023-05-24T17:24:19.444Z,1007.24
2023-05-24T17:29:19.135Z,1007.28
2023-05-24T17:34:19.067Z,1007.28
2023-05-24T17:39:18.991Z,1007.30
2023-05-24T17:44:18.962Z,1007.51
2023-05-24T17:49:18.877Z,1007.48
2023-05-24T17:54:19.779Z,1007.44
2023-05-24T17:59:18.753Z,1007.47
2023-05-24T18:04:19.397Z,1007.50
2023-05-24T18:09:18.689Z,1007.53
2023-05-24T18:14:18.616Z,1007.50
2023-05-24T18:19:18.541Z,1007.56
2023-05-24T18:24:18.400Z,1007.62
2023-05-24T18:29:18.359Z,1007.61
2023-05-24T18:34:18.289Z,1007.66
2023-05-24T18:39:18.180Z,1007.83
2023-05-24T18:44:18.137Z,1007.78
2023-05-24T18:49:18.441Z,1007.78
2023-05-24T18:54:18.017Z,1007.87
2023-05-24T18:59:17.944Z,1007.83
2023-05-24T19:04:17.909Z,1007.84
2023-05-24T19:09:17.782Z,1007.91
2023-05-24T19:14:17.819Z,1007.90
2023-05-24T19:19:17.653Z,1008.05
2023-05-24T19:24:17.585Z,1008.04
2023-05-24T19:29:17.544Z,1008.09
2023-05-24T19:34:17.502Z,1008.21
2023-05-24T19:39:17.418Z,1008.26
2023-05-24T19:44:17.378Z,1008.33
2023-05-24T19:49:17.292Z,1008.39
2023-05-24T19:54:17.198Z,1008.48
2023-05-24T19:59:17.149Z,1008.48
2023-05-24T20:04:17.154Z,1008.51
2023-05-24T20:09:17.498Z,1008.56
2023-05-24T20:14:16.938Z,1008.72
2023-05-24T20:19:16.857Z,1008.81
2023-05-24T20:24:16.792Z,1008.76
2023-05-24T20:29:16.720Z,1008.76
2023-05-24T20:34:16.650Z,1008.78
2023-05-24T20:39:16.578Z,1008.78
2023-05-24T20:44:16.545Z,1008.70
2023-05-24T20:49:16.464Z,1008.85
2023-05-24T20:54:16.373Z,1008.93
2023-05-24T20:59:16.320Z,1008.84
2023-05-24T21:04:16.266Z,1008.87
2023-05-24T21:09:16.176Z,1009.06
2023-05-24T21:14:16.122Z,1009.22
2023-05-24T21:19:16.051Z,1009.13
2023-05-24T21:24:15.998Z,1009.25
2023-05-24T21:29:15.910Z,1009.21
2023-05-24T21:34:15.853Z,1009.22
2023-05-24T21:39:15.779Z,1009.27
2023-05-24T21:44:15.706Z,1009.24
2023-05-24T21:49:15.656Z,1009.16
2023-05-24T21:54:15.580Z,1009.34
2023-05-24T21:59:15.522Z,1009.15
2023-05-24T22:04:15.585Z,1009.25
2023-05-24T22:09:15.395Z,1009.33
2023-05-24T22:14:15.332Z,1009.38
2023-05-24T22:19:18.451Z,1009.42
2023-05-24T22:24:16.201Z,1009.51
2023-05-24T22:29:15.152Z,1009.45
2023-05-24T22:34:15.062Z,1009.57
2023-05-24T22:39:14.995Z,1009.51
2023-05-24T22:44:14.936Z,1009.54
2023-05-24T22:49:14.876Z,1009.51
2023-05-24T22:54:14.797Z,1009.51
2023-05-24T22:59:14.736Z,1009.57
2023-05-24T23:04:21.262Z,1009.66
2023-05-24T23:09:15.588Z,1009.64
2023-05-24T23:14:14.542Z,1009.59
2023-05-24T23:19:14.449Z,1009.52
2023-05-24T23:24:14.411Z,1009.54
2023-05-24T23:29:14.375Z,1009.59
2023-05-24T23:34:14.254Z,1009.63
2023-05-24T23:39:14.179Z,1009.72
2023-05-24T23:44:14.126Z,1009.83
2023-05-24T23:49:14.066Z,1009.82
2023-05-24T23:54:14.004Z,1009.85
2023-05-24T23:59:13.906Z,1009.89
